Springdale, South Carolina
Current Conditions -  °F | °C
As of 6:56 AM on Friday 28 Nov 2014 (Local Time) from KCAE Reporting Station
Clear Clear  
Wind Chill: 33°   Ceiling: Unl
Heat Index: 33°   Visibility: 10mi
Dew Point: 24°   Wind: 3mph
Humidity: 70%   Direction: 330°NNW
Pressure: 30.37"   Gusts: NA
Location:  33.9973°N, 81.0998°W
Report Text: KCAE 281156Z 33003KT 10SM CLR 01/M04 A3037 RMK AO2 SLP284 T00061044 10044 20006 53011
Loading
Personal Weather Stations






























Interactive Weather Map New forecast layout! Learn more

10-Day Weather Forecast

Advertisements
Track Severe Weather on mobile